Time;durP1;ratioP1;P1;durP2;ratioP2;P2;SDS_P1;SDS_P2;PMS_P1;PMS_P2;Temp;Humidity;BMP_temperature;BMP_pressure;BME280_temperature;BME280_humidity;BME280_pressure;Samples;Min_cycle;Max_cycle;Signal;HPM_P1;HPM_P2
2021/09/08 00:00:12;;;;;;;21.73;11.43;;;15.70;1.00;;;;;;5016976;28;20463;-79
2021/09/08 00:06:12;;;;;;;22.93;11.47;;;15.70;1.00;;;;;;5014395;28;20424;-79
2021/09/08 00:09:12;;;;;;;20.53;11.07;;;15.70;1.00;;;;;;5034874;28;20438;-77
2021/09/08 00:11:42;;;;;;;23.97;12.70;;;15.60;1.00;;;;;;5032599;28;20796;-77
2021/09/08 00:17:29;;;;;;;28.10;12.20;;;15.60;1.00;;;;;;5033951;28;20406;-77
2021/09/08 00:20:30;;;;;;;20.37;11.80;;;15.60;1.00;;;;;;5034412;28;20404;-77
2021/09/08 00:26:17;;;;;;;30.23;12.53;;;15.60;1.00;;;;;;5021828;28;20410;-77
2021/09/08 00:29:13;;;;;;;24.03;11.77;;;17.20;1.00;;;;;;5033569;28;20758;-77
2021/09/08 00:31:45;;;;;;;23.20;12.97;;;15.50;1.00;;;;;;5033753;28;20817;-77
2021/09/08 00:40:56;;;;;;;20.10;11.33;;;15.50;1.00;;;;;;5034102;28;20349;-79
2021/09/08 00:43:59;;;;;;;24.10;11.13;;;15.40;1.00;;;;;;5024849;28;20418;-79
2021/09/08 00:47:06;;;;;;;23.43;12.10;;;15.50;1.00;;;;;;5014215;28;20399;-79
2021/09/08 00:50:00;;;;;;;20.73;11.67;;;15.40;1.00;;;;;;5030815;28;20405;-79
2021/09/08 00:52:25;;;;;;;20.73;12.60;;;15.40;1.00;;;;;;5019678;28;20503;-79
2021/09/08 00:58:13;;;;;;;22.33;11.60;;;15.40;1.00;;;;;;5017987;28;20460;-79
2021/09/08 01:04:01;;;;;;;26.97;12.23;;;15.30;1.00;;;;;;5026316;28;20797;-79
2021/09/08 01:10:29;;;;;;;21.30;12.07;;;15.30;1.00;;;;;;5032813;28;20226;-78
2021/09/08 01:13:35;;;;;;;20.77;11.57;;;15.30;1.00;;;;;;5024827;28;20427;-77
2021/09/08 01:16:06;;;;;;;21.60;11.37;;;15.30;1.00;;;;;;5026075;28;20475;-77
2021/09/08 01:18:45;;;;;;;24.10;12.60;;;15.30;1.00;;;;;;5017503;28;20412;-77
2021/09/08 01:21:24;;;;;;;21.93;11.40;;;15.30;1.00;;;;;;5026718;28;20455;-77
2021/09/08 01:23:50;;;;;;;30.23;12.30;;;;;;;;;;5032393;28;20426;-79
2021/09/08 01:29:38;;;;;;;23.70;11.90;;;15.20;1.00;;;;;;5018028;28;20422;-79
2021/09/08 01:35:25;;;;;;;20.90;11.30;;;15.20;1.00;;;;;;5019273;28;20342;-79
2021/09/08 01:41:13;;;;;;;24.50;11.57;;;15.20;1.00;;;;;;5013686;28;20188;-79
2021/09/08 01:47:54;;;;;;;21.87;12.07;;;15.20;1.00;;;;;;5013248;28;20199;-79
2021/09/08 01:54:35;;;;;;;22.40;12.47;;;15.10;1.00;;;;;;5019800;28;20517;-79
2021/09/08 01:57:01;;;;;;;28.90;11.67;;;15.10;1.00;;;;;;5013605;28;20383;-77
2021/09/08 02:03:06;;;;;;;17.30;11.07;;;14.90;1.00;;;;;;5033115;28;20161;-77
2021/09/08 02:06:11;;;;;;;18.17;11.90;;;14.90;1.00;;;;;;5021042;28;20989;-77
2021/09/08 02:08:42;;;;;;;26.67;11.63;;;14.90;1.00;;;;;;5015084;28;20415;-77
2021/09/08 02:11:36;;;;;;;22.30;12.27;;;14.90;1.00;;;;;;5033208;28;20841;-77
2021/09/08 02:14:02;;;;;;;21.80;11.43;;;;;;;;;;5022118;28;20412;-77
2021/09/08 02:23:11;;;;;;;20.30;11.90;;;14.80;1.00;;;;;;5017118;28;20418;-77
2021/09/08 02:25:48;;;;;;;23.40;12.87;;;14.70;1.00;;;;;;5036022;28;20378;-79
2021/09/08 02:28:24;;;;;;;21.63;11.70;;;15.50;1.00;;;;;;5035902;28;20649;-79
2021/09/08 02:31:06;;;;;;;20.27;11.57;;;14.70;1.00;;;;;;5036295;28;20416;-79
2021/09/08 02:33:48;;;;;;;25.77;12.07;;;14.70;1.00;;;;;;5036381;28;20469;-79
2021/09/08 02:39:36;;;;;;;21.20;12.37;;;;;;;;;;5035135;28;20429;-79
2021/09/08 02:45:24;;;;;;;22.90;11.80;;;14.40;1.00;;;;;;5036188;28;20426;-79
2021/09/08 02:51:11;;;;;;;25.30;11.37;;;14.40;1.00;;;;;;5024721;28;20176;-79
2021/09/08 02:54:17;;;;;;;21.70;11.73;;;14.40;1.00;;;;;;5019535;28;20398;-80
2021/09/08 03:00:05;;;;;;;28.70;12.60;;;14.30;1.00;;;;;;5016425;28;20953;-77
2021/09/08 03:02:36;;;;;;;29.20;13.50;;;14.30;1.00;;;;;;5016062;28;20386;-77
2021/09/08 03:05:12;;;;;;;23.90;11.40;;;14.20;1.00;;;;;;5016029;28;20767;-77
2021/09/08 03:08:24;;;;;;;22.80;12.23;;;14.20;1.00;;;;;;5015946;28;20902;-77
2021/09/08 03:11:07;;;;;;;30.83;13.87;;;14.20;1.00;;;;;;5028368;28;20916;-78
2021/09/08 03:13:33;;;;;;;27.63;12.37;;;14.20;1.00;;;;;;5023586;28;20393;-76
2021/09/08 03:16:06;;;;;;;26.03;13.60;;;14.20;1.00;;;;;;5021572;28;20443;-77
2021/09/08 03:19:17;;;;;;;30.20;13.50;;;14.20;1.00;;;;;;5022320;28;20265;-77
2021/09/08 03:22:00;;;;;;;26.00;13.67;;;14.10;1.00;;;;;;5028282;28;20421;-77
2021/09/08 03:28:36;;;;;;;23.07;13.10;;;14.10;1.00;;;;;;5023741;28;20389;-77
2021/09/08 03:31:12;;;;;;;23.67;13.00;;;14.10;1.00;;;;;;5031680;28;20404;-77
2021/09/08 03:33:54;;;;;;;25.73;12.50;;;14.00;1.00;;;;;;5034072;28;20398;-77
2021/09/08 03:36:36;;;;;;;24.67;12.43;;;14.10;1.00;;;;;;5034418;28;20929;-77
2021/09/08 03:39:12;;;;;;;23.77;12.70;;;14.10;1.00;;;;;;5034573;28;20378;-77
2021/09/08 03:41:38;;;;;;;22.77;13.43;;;14.00;1.00;;;;;;5035099;28;20898;-77
2021/09/08 03:44:12;;;;;;;26.13;13.47;;;14.00;1.00;;;;;;5035215;28;20389;-77
2021/09/08 03:46:54;;;;;;;20.70;13.00;;;14.00;1.00;;;;;;5031689;28;20226;-77
2021/09/08 03:49:24;;;;;;;26.17;13.53;;;14.00;1.00;;;;;;5018245;28;20399;-78
2021/09/08 03:51:54;;;;;;;24.53;12.77;;;14.00;1.00;;;;;;5029995;28;20389;-77
2021/09/08 03:54:24;;;;;;;22.80;12.47;;;14.00;1.00;;;;;;5029441;28;20418;-77
2021/09/08 03:57:00;;;;;;;23.70;13.00;;;14.00;1.00;;;;;;5035351;28;20403;-79
2021/09/08 03:59:25;;;;;;;23.03;13.17;;;14.00;1.00;;;;;;5034454;28;20920;-80
2021/09/08 04:01:51;;;;;;;27.60;12.90;;;14.00;1.00;;;;;;5023428;28;20434;-79
2021/09/08 04:04:24;;;;;;;28.17;12.63;;;14.00;1.00;;;;;;5024138;28;20561;-79
2021/09/08 04:06:54;;;;;;;28.97;13.80;;;14.00;1.00;;;;;;5014633;28;20172;-79
2021/09/08 04:13:30;;;;;;;26.10;13.67;;;13.90;1.00;;;;;;5023993;28;20464;-77
2021/09/08 04:16:24;;;;;;;27.60;13.77;;;13.90;1.00;;;;;;5027061;28;20424;-77
2021/09/08 04:22:11;;;;;;;29.53;15.23;;;13.90;1.00;;;;;;5033656;28;20722;-77
2021/09/08 04:24:42;;;;;;;38.47;14.03;;;13.90;1.00;;;;;;5020507;28;20386;-77
2021/09/08 04:27:24;;;;;;;29.03;14.53;;;13.90;1.00;;;;;;5028060;28;20188;-77
2021/09/08 04:33:48;;;;;;;27.13;13.83;;;13.90;1.00;;;;;;5014582;28;20393;-77
2021/09/08 04:36:30;;;;;;;32.37;13.10;;;13.90;1.00;;;;;;5014534;28;20420;-76
2021/09/08 04:46:29;;;;;;;24.53;12.97;;;13.80;1.00;;;;;;5016678;28;20381;-78
2021/09/08 04:49:47;;;;;;;29.30;13.90;;;13.80;1.00;;;;;;5020478;28;20774;-80
2021/09/08 04:55:54;;;;;;;25.87;13.77;;;13.80;1.00;;;;;;5029156;28;20454;-80
2021/09/08 05:05:04;;;;;;;26.80;13.70;;;13.80;1.00;;;;;;5032862;28;20474;-80
2021/09/08 05:14:42;;;;;;;28.80;13.90;;;13.90;1.00;;;;;;5030427;28;20406;-80
2021/09/08 05:20:48;;;;;;;25.70;13.90;;;13.90;1.00;;;;;;5018175;28;20450;-80
2021/09/08 05:29:57;;;;;;;25.90;13.97;;;14.00;1.00;;;;;;5023463;28;20917;-80
2021/09/08 05:42:30;;;;;;;25.07;13.30;;;14.10;1.00;;;;;;5016191;28;20381;-77
2021/09/08 05:45:18;;;;;;;29.20;13.47;;;14.20;1.00;;;;;;5033527;28;20954;-77
2021/09/08 05:48:00;;;;;;;25.90;13.87;;;;;;;;;;5024454;28;20477;-77
2021/09/08 05:50:30;;;;;;;25.30;13.90;;;14.30;1.00;;;;;;5022308;28;20709;-79
2021/09/08 05:53:03;;;;;;;26.80;14.43;;;14.40;1.00;;;;;;5028601;28;20536;-78
2021/09/08 05:55:30;;;;;;;29.07;14.63;;;14.40;1.00;;;;;;5028695;28;20429;-77
2021/09/08 05:57:56;;;;;;;32.00;14.87;;;14.40;1.00;;;;;;5024699;28;20501;-77
2021/09/08 06:00:24;;;;;;;33.87;14.87;;;14.50;1.00;;;;;;5035573;28;20481;-77
2021/09/08 06:02:54;;;;;;;29.53;13.80;;;14.60;1.00;;;;;;5036632;28;20188;-77
2021/09/08 06:05:36;;;;;;;30.30;14.37;;;;;;;;;;5025847;28;20784;-77
2021/09/08 06:11:48;;;;;;;26.30;14.70;;;14.80;1.00;;;;;;5036863;28;20445;-77
2021/09/08 06:17:36;;;;;;;27.50;13.40;;;15.00;1.00;;;;;;5036156;28;20407;-77
2021/09/08 06:20:02;;;;;;;25.07;13.80;;;15.00;1.00;;;;;;5036089;28;20377;-77
2021/09/08 06:22:28;;;;;;;26.60;14.17;;;15.10;1.00;;;;;;5036057;28;20403;-77
2021/09/08 06:24:53;;;;;;;29.03;14.27;;;15.20;1.00;;;;;;5035860;28;20407;-77
2021/09/08 06:27:19;;;;;;;24.43;13.00;;;15.30;1.00;;;;;;5036389;28;20188;-80
2021/09/08 06:29:45;;;;;;;25.60;13.30;;;15.30;1.00;;;;;;5035929;28;20514;-80
2021/09/08 06:32:10;;;;;;;26.33;14.40;;;15.40;1.00;;;;;;5035814;28;20173;-81
2021/09/08 06:34:36;;;;;;;23.07;13.27;;;;;;;;;;5035866;28;20189;-80
2021/09/08 06:37:02;;;;;;;26.33;12.87;;;15.60;1.00;;;;;;5035719;28;20165;-80
2021/09/08 06:39:28;;;;;;;21.83;12.50;;;;;;;;;;5035558;28;20405;-81
2021/09/08 06:41:56;;;;;;;23.50;13.50;;;15.90;1.00;;;;;;5036017;28;20203;-78
2021/09/08 06:44:23;;;;;;;27.00;13.60;;;;;;;;;;5035535;28;20433;-80
2021/09/08 06:46:50;;;;;;;22.17;12.03;;;;;;;;;;5027765;28;20442;-80
2021/09/08 06:49:16;;;;;;;21.47;12.30;;;16.10;1.00;;;;;;5035562;28;20935;-80
2021/09/08 06:51:41;;;;;;;27.03;13.23;;;16.20;1.00;;;;;;5021731;28;20398;-80
2021/09/08 06:54:07;;;;;;;23.03;11.20;;;;;;;;;;5034205;28;20196;-80
2021/09/08 06:56:33;;;;;;;24.40;11.90;;;16.30;1.00;;;;;;5035200;28;20185;-80
2021/09/08 06:58:59;;;;;;;32.33;12.37;;;16.60;1.00;;;;;;5035751;28;20892;-78
2021/09/08 07:01:24;;;;;;;26.30;11.57;;;16.60;1.00;;;;;;5034069;28;20694;-78
2021/09/08 07:03:50;;;;;;;24.20;11.83;;;16.70;1.00;;;;;;5034450;28;20666;-78
2021/09/08 07:06:16;;;;;;;22.00;12.00;;;;;;;;;;5034857;28;20192;-78
2021/09/08 07:08:41;;;;;;;29.57;10.87;;;16.90;1.00;;;;;;5035096;28;20622;-78
2021/09/08 07:11:07;;;;;;;28.70;11.57;;;;;;;;;;5034144;28;20430;-78
2021/09/08 07:13:33;;;;;;;28.73;12.80;;;17.30;1.00;;;;;;5035294;28;20251;-80
2021/09/08 07:15:58;;;;;;;18.17;11.30;;;17.30;1.00;;;;;;5034906;28;20587;-80
2021/09/08 07:18:25;;;;;;;24.30;12.33;;;;;;;;;;5034923;28;20166;-80
2021/09/08 07:20:50;;;;;;;23.47;12.87;;;17.40;1.00;;;;;;5035010;28;20161;-80
2021/09/08 07:23:16;;;;;;;24.10;11.00;;;17.60;1.00;;;;;;5034673;28;20446;-80
2021/09/08 07:25:42;;;;;;;21.43;11.33;;;17.70;1.00;;;;;;5034833;28;20236;-80
2021/09/08 07:28:07;;;;;;;19.77;10.83;;;17.80;1.00;;;;;;5035087;28;20165;-80
2021/09/08 07:30:33;;;;;;;20.77;11.13;;;17.90;1.00;;;;;;5035041;28;20527;-80
2021/09/08 07:32:59;;;;;;;18.53;10.80;;;18.10;1.00;;;;;;5034818;28;20181;-80
2021/09/08 07:35:25;;;;;;;19.47;10.70;;;18.20;1.00;;;;;;5034779;28;20631;-80
2021/09/08 07:37:50;;;;;;;15.67;9.53;;;18.20;1.00;;;;;;5034547;28;20433;-80
2021/09/08 07:40:18;;;;;;;20.30;10.37;;;18.40;1.00;;;;;;5034199;28;20260;-80
2021/09/08 07:42:44;;;;;;;18.50;11.20;;;18.50;1.00;;;;;;5034751;28;20155;-78
2021/09/08 07:45:10;;;;;;;22.37;10.77;;;18.70;1.00;;;;;;5034359;28;20402;-78
2021/09/08 07:47:35;;;;;;;25.30;10.37;;;18.70;1.00;;;;;;5028758;28;20191;-78
2021/09/08 07:50:01;;;;;;;18.00;10.93;;;18.70;1.00;;;;;;5034143;28;20515;-78
2021/09/08 07:52:27;;;;;;;21.07;10.70;;;18.90;1.00;;;;;;5034171;28;20625;-78
2021/09/08 07:54:53;;;;;;;19.60;10.63;;;19.00;1.00;;;;;;5025179;28;20549;-78
2021/09/08 07:57:18;;;;;;;19.40;10.90;;;19.10;1.00;;;;;;5025944;28;20206;-78
2021/09/08 07:59:44;;;;;;;20.30;11.27;;;;;;;;;;5034452;28;20170;-80
2021/09/08 08:02:10;;;;;;;22.00;10.23;;;19.40;1.00;;;;;;5032945;28;20210;-80
2021/09/08 08:04:36;;;;;;;16.97;9.13;;;19.50;1.00;;;;;;5033648;28;20417;-80
2021/09/08 08:07:02;;;;;;;22.63;10.57;;;;;;;;;;5033919;28;20230;-80
2021/09/08 08:09:27;;;;;;;19.70;11.10;;;;;;;;;;5033972;28;20164;-80
2021/09/08 08:11:53;;;;;;;17.67;9.97;;;19.70;1.00;;;;;;5033686;28;20395;-80
2021/09/08 08:14:19;;;;;;;17.20;10.10;;;19.80;1.00;;;;;;5034217;28;20786;-78
2021/09/08 08:16:44;;;;;;;24.43;11.17;;;19.90;1.00;;;;;;5032706;28;20187;-78
2021/09/08 08:19:10;;;;;;;17.43;10.77;;;;;;;;;;5033910;28;20163;-78
2021/09/08 08:21:38;;;;;;;17.37;10.20;;;;;;;;;;5032104;28;20181;-79
2021/09/08 08:24:04;;;;;;;27.43;9.90;;;19.90;1.00;;;;;;5033814;28;20928;-79
2021/09/08 08:26:30;;;;;;;21.00;11.37;;;20.10;1.00;;;;;;5033989;28;20399;-79
2021/09/08 08:28:56;;;;;;;19.83;10.27;;;20.20;1.00;;;;;;5034017;28;20816;-78
2021/09/08 08:31:21;;;;;;;15.90;10.53;;;20.30;1.00;;;;;;5034024;28;20422;-78
2021/09/08 08:33:48;;;;;;;16.20;9.50;;;20.30;1.00;;;;;;5033497;28;20567;-78
2021/09/08 08:36:15;;;;;;;20.33;11.30;;;20.40;1.00;;;;;;5033585;28;20192;-77
2021/09/08 08:38:42;;;;;;;17.40;11.17;;;20.60;1.00;;;;;;5033501;28;20386;-78
2021/09/08 08:41:08;;;;;;;22.37;9.97;;;20.50;1.00;;;;;;5033394;28;20451;-78
2021/09/08 08:43:34;;;;;;;18.27;11.47;;;;;;;;;;5033849;28;20459;-78
2021/09/08 08:46:02;;;;;;;26.53;10.53;;;20.80;1.00;;;;;;5028265;28;20185;-78
2021/09/08 08:48:27;;;;;;;22.10;9.90;;;20.90;1.00;;;;;;5029762;28;20868;-78
2021/09/08 08:50:53;;;;;;;15.80;10.73;;;20.90;1.00;;;;;;5023101;28;20428;-78
2021/09/08 08:53:19;;;;;;;16.30;10.37;;;21.00;1.00;;;;;;5013547;28;20292;-78
2021/09/08 08:55:44;;;;;;;15.00;9.43;;;21.10;1.00;;;;;;5013496;28;20467;-78
2021/09/08 08:58:13;;;;;;;17.53;10.20;;;21.20;1.00;;;;;;5013648;28;20177;-78
2021/09/08 09:00:40;;;;;;;22.23;9.80;;;21.20;1.00;;;;;;5013405;28;20166;-79
2021/09/08 09:03:06;;;;;;;20.20;10.80;;;;;;;;;;5013374;28;20406;-79
2021/09/08 09:05:35;;;;;;;15.73;10.80;;;21.30;1.00;;;;;;5013460;28;20405;-80
2021/09/08 09:08:03;;;;;;;17.07;10.50;;;21.40;1.00;;;;;;5013267;28;20447;-80
2021/09/08 09:10:29;;;;;;;21.57;10.30;;;21.60;1.00;;;;;;5013105;28;20402;-80
2021/09/08 09:12:54;;;;;;;13.80;9.03;;;21.70;1.00;;;;;;5013366;28;20469;-79
2021/09/08 09:15:22;;;;;;;19.80;9.93;;;21.80;1.00;;;;;;5013481;28;20202;-78
2021/09/08 09:17:49;;;;;;;24.23;10.87;;;21.80;1.00;;;;;;5013324;28;20170;-78
2021/09/08 09:20:25;;;;;;;19.07;9.53;;;21.70;1.00;;;;;;5013474;28;20379;-78
2021/09/08 09:22:54;;;;;;;16.27;10.13;;;21.70;1.00;;;;;;5013072;28;20376;-79
2021/09/08 09:25:24;;;;;;;19.50;10.50;;;21.90;1.00;;;;;;5013110;28;20407;-78
2021/09/08 09:27:52;;;;;;;19.80;10.70;;;22.00;1.00;;;;;;5013529;28;20413;-78
2021/09/08 09:30:23;;;;;;;19.57;9.97;;;22.20;1.00;;;;;;5013629;28;20429;-79
2021/09/08 09:32:50;;;;;;;18.27;9.80;;;22.20;1.00;;;;;;5014042;28;20498;-79
2021/09/08 09:35:18;;;;;;;17.60;9.70;;;22.40;1.00;;;;;;5017205;28;20455;-79
2021/09/08 09:37:57;;;;;;;14.97;9.87;;;22.40;1.00;;;;;;5017174;28;20399;-79
2021/09/08 09:40:27;;;;;;;17.30;9.60;;;22.50;1.00;;;;;;5023183;28;20421;-79
2021/09/08 09:42:53;;;;;;;15.77;10.20;;;22.60;1.00;;;;;;5036825;28;20955;-79
2021/09/08 09:45:24;;;;;;;15.17;8.87;;;22.80;1.00;;;;;;5036940;28;20486;-78
2021/09/08 09:47:50;;;;;;;17.00;9.53;;;22.90;1.00;;;;;;5030838;28;20614;-78
2021/09/08 09:50:19;;;;;;;23.10;10.60;;;23.10;1.00;;;;;;5031641;28;20466;-78
2021/09/08 09:52:49;;;;;;;13.97;8.70;;;23.30;1.00;;;;;;5016901;28;20244;-78
2021/09/08 09:55:15;;;;;;;18.13;9.70;;;23.30;1.00;;;;;;5027855;28;20505;-78
2021/09/08 09:57:42;;;;;;;16.70;10.00;;;23.30;1.00;;;;;;5036456;28;20466;-78
2021/09/08 10:00:14;;;;;;;16.37;9.30;;;23.30;1.00;;;;;;5036865;28;20400;-79
2021/09/08 10:02:41;;;;;;;16.67;9.73;;;23.50;1.00;;;;;;5036246;28;20755;-79
2021/09/08 10:05:07;;;;;;;15.33;9.80;;;23.50;1.00;;;;;;5036236;28;20813;-79
2021/09/08 10:07:34;;;;;;;15.27;9.60;;;23.70;1.00;;;;;;5036032;28;20447;-79
2021/09/08 10:10:08;;;;;;;16.23;8.80;;;23.70;1.00;;;;;;5035993;28;20405;-79
2021/09/08 10:12:54;;;;;;;68.87;10.87;;;23.80;1.00;;;;;;5036313;28;20491;-79
2021/09/08 10:15:22;;;;;;;13.90;9.40;;;23.80;1.00;;;;;;5036348;28;20456;-79
2021/09/08 10:17:48;;;;;;;14.50;8.90;;;24.00;1.00;;;;;;5036205;28;20463;-79
2021/09/08 10:20:20;;;;;;;14.97;9.33;;;24.10;1.00;;;;;;5036192;28;20721;-79
2021/09/08 10:22:48;;;;;;;16.53;9.27;;;24.20;1.00;;;;;;5036148;28;20401;-79
2021/09/08 10:25:22;;;;;;;12.53;8.13;;;24.20;1.00;;;;;;5036071;28;20440;-79
2021/09/08 10:27:56;;;;;;;20.00;9.70;;;24.20;1.00;;;;;;5035846;28;20795;-79
2021/09/08 10:30:26;;;;;;;13.20;8.70;;;24.50;1.00;;;;;;5036371;28;20899;-79
2021/09/08 10:32:53;;;;;;;11.20;7.83;;;24.50;1.00;;;;;;5035875;28;20413;-79
2021/09/08 10:35:19;;;;;;;14.57;8.90;;;24.60;1.00;;;;;;5035706;28;20944;-79
2021/09/08 10:37:47;;;;;;;14.10;8.43;;;24.60;1.00;;;;;;5035706;28;20406;-79
2021/09/08 10:40:18;;;;;;;14.40;8.50;;;24.70;1.00;;;;;;5035631;28;20414;-78
2021/09/08 10:42:44;;;;;;;17.87;8.33;;;24.80;1.00;;;;;;5035703;28;20406;-78
2021/09/08 10:45:31;;;;;;;10.67;8.23;;;24.80;1.00;;;;;;5034928;28;20876;-79
2021/09/08 10:47:59;;;;;;;19.33;8.40;;;24.90;1.00;;;;;;5031047;28;20468;-79
2021/09/08 10:50:45;;;;;;;14.20;9.23;;;24.90;1.00;;;;;;5035396;28;20759;-79
2021/09/08 10:53:19;;;;;;;15.27;9.03;;;25.00;1.00;;;;;;5035433;28;20402;-79
2021/09/08 10:55:46;;;;;;;23.47;8.60;;;24.90;1.00;;;;;;5021105;28;20551;-79
2021/09/08 10:58:13;;;;;;;20.13;8.20;;;25.00;1.00;;;;;;5015622;28;20452;-79
2021/09/08 11:00:40;;;;;;;12.07;8.97;;;25.10;1.00;;;;;;5014561;28;20427;-78
2021/09/08 11:03:15;;;;;;;12.90;8.43;;;25.20;1.00;;;;;;5015577;28;20466;-78
2021/09/08 11:05:58;;;;;;;12.30;8.50;;;25.20;1.00;;;;;;5015254;28;20406;-78
2021/09/08 11:08:30;;;;;;;20.17;8.93;;;25.30;1.00;;;;;;5015272;28;20846;-78
2021/09/08 11:11:18;;;;;;;20.23;8.70;;;25.50;1.00;;;;;;5015136;28;20474;-78
2021/09/08 11:13:47;;;;;;;13.37;8.87;;;25.50;1.00;;;;;;5015282;28;20823;-78
2021/09/08 11:16:17;;;;;;;17.87;8.73;;;25.60;1.00;;;;;;5015620;28;20397;-78
2021/09/08 11:18:42;;;;;;;16.50;7.90;;;25.70;1.00;;;;;;5015313;28;20403;-78
2021/09/08 11:21:12;;;;;;;19.33;9.03;;;25.90;1.00;;;;;;5015147;28;20401;-78
2021/09/08 11:23:38;;;;;;;13.03;8.47;;;25.90;1.00;;;;;;5015297;28;20172;-78
2021/09/08 11:26:09;;;;;;;12.87;7.93;;;25.80;1.00;;;;;;5014966;28;20934;-78
2021/09/08 11:28:37;;;;;;;11.27;8.70;;;25.90;1.00;;;;;;5015022;28;20164;-78
2021/09/08 11:31:11;;;;;;;16.60;8.37;;;26.00;1.00;;;;;;5015652;28;20406;-78
2021/09/08 11:33:37;;;;;;;12.37;7.50;;;26.20;1.00;;;;;;5014885;28;20930;-78
2021/09/08 11:36:15;;;;;;;16.13;8.13;;;26.30;1.00;;;;;;5014908;28;20399;-78
2021/09/08 11:38:50;;;;;;;11.20;7.90;;;26.30;1.00;;;;;;5014910;28;20156;-78
2021/09/08 11:41:17;;;;;;;11.23;7.57;;;26.30;1.00;;;;;;5028130;28;20412;-78
2021/09/08 11:43:52;;;;;;;12.50;8.60;;;26.40;1.00;;;;;;5034463;28;20404;-78
2021/09/08 11:46:25;;;;;;;12.27;7.57;;;26.50;1.00;;;;;;5033201;28;20963;-79
2021/09/08 11:49:07;;;;;;;12.87;7.93;;;26.60;1.00;;;;;;5024821;28;20420;-79
2021/09/08 11:51:39;;;;;;;9.23;7.70;;;26.60;1.00;;;;;;5028447;28;20412;-79
2021/09/08 11:54:08;;;;;;;18.23;7.77;;;26.70;1.00;;;;;;5034384;28;20515;-79
2021/09/08 11:56:37;;;;;;;16.27;7.50;;;26.70;1.00;;;;;;5034178;28;20408;-79
2021/09/08 11:59:04;;;;;;;12.20;7.77;;;26.70;1.00;;;;;;5034263;28;20394;-79
2021/09/08 12:01:40;;;;;;;14.73;7.63;;;26.80;1.00;;;;;;5034364;28;20800;-79
2021/09/08 12:04:09;;;;;;;12.07;8.40;;;26.90;1.00;;;;;;5033947;28;20551;-79
2021/09/08 12:06:59;;;;;;;14.50;7.63;;;26.90;1.00;;;;;;5034021;28;20472;-79
2021/09/08 12:09:27;;;;;;;13.93;7.20;;;27.00;1.00;;;;;;5033953;28;20426;-79
2021/09/08 12:12:01;;;;;;;9.83;7.37;;;27.10;1.00;;;;;;5033854;28;20482;-79
2021/09/08 12:14:26;;;;;;;7.87;6.93;;;27.10;1.00;;;;;;5034924;28;20882;-79
2021/09/08 12:17:03;;;;;;;9.33;7.00;;;27.10;1.00;;;;;;5034299;28;20396;-79
2021/09/08 12:19:38;;;;;;;13.40;7.63;;;27.30;1.00;;;;;;5033910;28;20192;-79
2021/09/08 12:22:15;;;;;;;11.87;7.57;;;27.30;1.00;;;;;;5033936;28;20401;-79
2021/09/08 12:24:47;;;;;;;12.43;7.33;;;27.40;1.00;;;;;;5033647;28;20439;-79
2021/09/08 12:27:37;;;;;;;8.67;6.47;;;27.30;1.00;;;;;;5033552;28;20417;-79
2021/09/08 12:30:22;;;;;;;11.43;7.40;;;27.40;1.00;;;;;;5033835;28;20424;-79
2021/09/08 12:33:04;;;;;;;10.27;7.17;;;27.50;1.00;;;;;;5033578;28;20409;-78
2021/09/08 12:35:43;;;;;;;8.77;7.20;;;27.60;1.00;;;;;;5033867;28;20736;-78
2021/09/08 12:38:35;;;;;;;13.87;7.53;;;27.70;1.00;;;;;;5032159;28;20433;-78
2021/09/08 12:41:32;;;;;;;16.20;7.00;;;27.70;1.00;;;;;;5032862;28;20961;-78
2021/09/08 12:44:48;;;;;;;9.63;6.57;;;27.70;1.00;;;;;;5033036;28;20500;-78
2021/09/08 12:47:19;;;;;;;11.50;6.97;;;27.70;1.00;;;;;;5027241;28;20446;-76
2021/09/08 12:49:47;;;;;;;11.67;7.53;;;27.80;1.00;;;;;;5019206;28;20433;-76
2021/09/08 12:52:24;;;;;;;7.97;6.70;;;27.80;1.00;;;;;;5027948;28;20782;-77
2021/09/08 12:58:11;;;;;;;8.90;6.90;;;28.10;1.00;;;;;;5024878;28;20393;-78
2021/09/08 13:03:59;;;;;;;8.23;7.00;;;28.20;1.00;;;;;;5032589;28;20177;-80
2021/09/08 13:10:24;;;;;;;6.80;6.10;;;28.50;1.00;;;;;;5033638;28;20421;-80
2021/09/08 13:13:18;;;;;;;11.23;7.17;;;28.50;1.00;;;;;;5030947;28;20858;-80
2021/09/08 13:19:19;;;;;;;10.10;7.13;;;28.50;1.00;;;;;;5013649;28;20904;-79
2021/09/08 13:25:07;;;;;;;9.63;6.40;;;28.50;1.00;;;;;;5029211;28;20459;-79
2021/09/08 13:30:55;;;;;;;13.43;7.23;;;28.50;1.00;;;;;;5013868;28;20414;-80
2021/09/08 13:36:54;;;;;;;11.07;6.77;;;28.60;1.00;;;;;;5033352;28;20186;-80
2021/09/08 13:42:41;;;;;;;11.20;6.80;;;28.90;1.00;;;;;;5028210;28;20549;-80
2021/09/08 13:49:18;;;;;;;7.40;5.90;;;28.70;1.00;;;;;;5021997;28;20398;-79
2021/09/08 13:51:48;;;;;;;7.50;6.20;;;28.70;1.00;;;;;;5015185;28;20433;-78
2021/09/08 13:57:36;;;;;;;8.43;6.83;;;28.90;1.00;;;;;;5033223;28;20389;-77
2021/09/08 14:00:10;;;;;;;10.27;6.60;;;28.80;1.00;;;;;;5033228;28;20484;-76
2021/09/08 14:02:36;;;;;;;8.00;6.63;;;28.70;1.00;;;;;;5033632;28;20163;-80
2021/09/08 14:09:00;;;;;;;8.57;6.67;;;28.80;1.00;;;;;;5014917;28;20406;-81
2021/09/08 14:11:27;;;;;;;10.57;6.60;;;28.80;1.00;;;;;;5027699;28;20490;-81
2021/09/08 14:14:00;;;;;;;13.60;6.30;;;28.80;1.00;;;;;;5026803;28;20434;-81
2021/09/08 14:19:47;;;;;;;8.30;6.40;;;29.00;99.90;;;;;;5031767;28;20388;-81
2021/09/08 14:25:36;;;;;;;15.83;6.90;;;29.00;99.90;;;;;;5036581;28;20349;-82
2021/09/08 14:38:42;;;;;;;8.03;6.57;;;29.20;1.00;;;;;;5035575;28;20467;-82
2021/09/08 14:41:12;;;;;;;9.93;6.17;;;29.10;1.00;;;;;;5034910;28;20429;-82
2021/09/08 14:43:38;;;;;;;8.87;7.30;;;29.20;99.90;;;;;;5034468;28;20782;-83
2021/09/08 14:49:25;;;;;;;8.17;6.63;;;29.20;99.90;;;;;;5017158;28;20195;-82
2021/09/08 14:58:35;;;;;;;18.80;6.43;;;29.10;99.90;;;;;;5036078;28;20380;-84
2021/09/08 15:01:18;;;;;;;11.03;6.57;;;29.10;99.90;;;;;;5035437;28;20458;-84
2021/09/08 15:03:48;;;;;;;15.40;6.63;;;29.90;99.90;;;;;;5035617;28;20170;-77
2021/09/08 15:09:36;;;;;;;11.20;6.47;;;;;;;;;;5035586;28;20370;-77
2021/09/08 15:12:09;;;;;;;12.20;5.73;;;34.20;99.90;;;;;;5033399;28;20493;-77
2021/09/08 15:14:38;;;;;;;8.37;6.20;;;34.40;99.90;;;;;;5035050;28;20546;-77
2021/09/08 15:17:30;;;;;;;8.90;5.93;;;35.60;99.90;;;;;;5026321;28;20891;-77
2021/09/08 15:23:18;;;;;;;5.90;5.30;;;37.00;99.90;;;;;;5034768;28;20782;-77
2021/09/08 15:26:00;;;;;;;8.13;5.10;;;38.40;99.90;;;;;;5035493;28;20906;-78
2021/09/08 15:28:36;;;;;;;7.87;5.30;;;38.60;99.90;;;;;;5034985;28;20411;-77
2021/09/08 15:31:18;;;;;;;6.93;5.40;;;38.80;99.90;;;;;;5035695;28;20418;-77
2021/09/08 15:34:06;;;;;;;5.10;4.70;;;39.90;99.90;;;;;;5036070;28;20403;-77
2021/09/08 15:36:42;;;;;;;6.40;5.07;;;40.30;99.90;;;;;;5035672;28;20477;-78
2021/09/08 15:39:08;;;;;;;6.57;5.93;;;40.50;99.90;;;;;;5035002;28;20723;-78
2021/09/08 15:41:34;;;;;;;10.77;4.97;;;40.70;99.90;;;;;;5034594;28;20394;-78
2021/09/08 15:44:00;;;;;;;8.83;4.93;;;41.30;99.90;;;;;;5034539;28;20160;-78
2021/09/08 15:46:25;;;;;;;5.27;4.77;;;41.40;99.90;;;;;;5029156;28;20177;-77
2021/09/08 15:48:51;;;;;;;5.77;5.13;;;41.10;99.90;;;;;;5023346;28;20196;-81
2021/09/08 15:51:16;;;;;;;5.37;4.90;;;41.50;99.90;;;;;;5023769;28;20207;-81
2021/09/08 15:53:42;;;;;;;5.40;4.93;;;41.40;99.90;;;;;;5034328;28;20165;-81
2021/09/08 15:56:42;;;;;;;10.27;5.13;;;41.40;99.90;;;;;;5032710;28;20204;-81
2021/09/08 15:59:30;;;;;;;4.93;4.53;;;42.40;99.90;;;;;;5027548;28;20175;-80
2021/09/08 16:02:00;;;;;;;5.47;4.97;;;42.50;99.90;;;;;;5035207;28;20391;-81
2021/09/08 16:04:26;;;;;;;7.10;5.10;;;41.50;99.90;;;;;;5034467;28;20427;-78
2021/09/08 16:06:54;;;;;;;6.70;4.43;;;41.60;99.90;;;;;;5035147;28;20859;-78
2021/09/08 16:09:21;;;;;;;5.53;4.87;;;;;;;;;;5033578;28;20267;-77
2021/09/08 16:12:19;;;;;;;5.07;4.67;;;41.60;99.90;;;;;;5034799;28;20574;-77
2021/09/08 16:15:00;;;;;;;5.00;4.60;;;42.00;99.90;;;;;;5034268;28;20460;-77
2021/09/08 16:17:36;;;;;;;5.40;4.17;;;42.30;99.90;;;;;;5034332;28;20399;-78
2021/09/08 16:20:07;;;;;;;5.50;4.20;;;42.30;99.90;;;;;;5034626;28;20427;-78
2021/09/08 16:22:36;;;;;;;5.47;4.83;;;42.30;99.90;;;;;;5034614;28;20399;-78
2021/09/08 16:25:03;;;;;;;4.90;4.50;;;41.80;99.90;;;;;;5029638;28;20427;-78
2021/09/08 16:27:30;;;;;;;7.43;4.40;;;41.60;99.90;;;;;;5020406;28;20416;-78
2021/09/08 16:30:13;;;;;;;6.30;4.77;;;41.60;99.90;;;;;;5028609;28;20493;-78
2021/09/08 16:32:40;;;;;;;5.63;4.30;;;41.80;99.90;;;;;;5018691;28;20792;-78
2021/09/08 16:35:13;;;;;;;5.20;4.70;;;41.80;99.90;;;;;;5033196;28;20477;-80
2021/09/08 16:37:48;;;;;;;6.33;4.53;;;41.80;99.90;;;;;;5034187;28;20387;-78
2021/09/08 16:40:30;;;;;;;5.30;4.53;;;41.10;99.90;;;;;;5034413;28;20423;-79
2021/09/08 16:43:50;;;;;;;15.20;5.43;;;39.70;99.90;;;;;;5032918;28;20416;-79